Time;durP1;ratioP1;P1;durP2;ratioP2;P2;SDS_P1;SDS_P2;PMS_P1;PMS_P2;Temp;Humidity;BMP_temperature;BMP_pressure;BME280_temperature;BME280_humidity;BME280_pressure;Samples;Min_cycle;Max_cycle;Signal;HPM_P1;HPM_P2
2021/06/12 00:01:12;;;;;;;19.20;17.60;;;18.90;99.90;;;;;;4952023;29;20191;-57
2021/06/12 00:03:37;;;;;;;17.90;16.50;;;19.00;99.90;;;;;;4949246;28;20218;-56
2021/06/12 00:06:04;;;;;;;18.20;16.70;;;19.00;99.90;;;;;;4935951;29;20300;-54
2021/06/12 00:08:29;;;;;;;16.90;15.60;;;19.00;99.90;;;;;;4946259;28;20201;-53
2021/06/12 00:10:55;;;;;;;17.10;15.90;;;19.00;99.90;;;;;;4954667;28;20423;-57
2021/06/12 00:13:21;;;;;;;17.20;15.87;;;19.00;99.90;;;;;;4938672;28;20465;-54
2021/06/12 00:15:47;;;;;;;17.63;16.23;;;19.00;99.90;;;;;;4934443;29;20680;-53
2021/06/12 00:18:13;;;;;;;17.10;15.70;;;19.00;99.90;;;;;;4944153;28;20315;-53
2021/06/12 00:20:38;;;;;;;15.80;14.60;;;19.00;99.90;;;;;;4945183;28;20186;-56
2021/06/12 00:23:06;;;;;;;15.83;14.63;;;19.10;99.90;;;;;;4943267;29;20795;-56
2021/06/12 00:25:32;;;;;;;15.90;14.70;;;19.10;99.90;;;;;;4940422;29;20632;-57
2021/06/12 00:27:58;;;;;;;16.63;15.27;;;19.10;99.90;;;;;;4950466;29;20465;-54
2021/06/12 00:30:25;;;;;;;16.03;14.73;;;19.10;99.90;;;;;;4937703;29;20444;-56
2021/06/12 00:32:50;;;;;;;16.50;15.30;;;19.20;99.90;;;;;;4947895;29;20423;-58
2021/06/12 00:35:16;;;;;;;15.53;14.33;;;19.20;99.90;;;;;;4941659;29;20440;-52
2021/06/12 00:37:42;;;;;;;16.93;15.53;;;19.20;99.90;;;;;;4949647;29;20185;-55
2021/06/12 00:40:10;;;;;;;16.33;15.03;;;19.20;99.90;;;;;;4946654;29;20249;-56
2021/06/12 00:42:37;;;;;;;15.97;14.87;;;19.20;99.90;;;;;;4950336;29;20179;-52
2021/06/12 00:45:05;;;;;;;16.30;15.00;;;19.20;99.90;;;;;;4947180;29;20862;-56
2021/06/12 00:47:31;;;;;;;16.47;15.23;;;19.20;99.90;;;;;;4951715;29;20460;-54
2021/06/12 00:49:56;;;;;;;15.60;14.40;;;19.20;99.90;;;;;;4947704;29;20442;-57
2021/06/12 00:52:22;;;;;;;16.93;15.63;;;19.20;99.90;;;;;;4945053;29;20317;-54
2021/06/12 00:54:47;;;;;;;15.70;14.60;;;19.10;99.90;;;;;;4943758;28;20666;-55
2021/06/12 00:57:13;;;;;;;17.00;15.70;;;19.00;99.90;;;;;;4947824;28;20189;-55
2021/06/12 00:59:39;;;;;;;16.10;14.90;;;19.00;99.90;;;;;;4941448;28;20280;-55
2021/06/12 01:02:04;;;;;;;16.50;15.20;;;19.00;99.90;;;;;;4951700;28;20204;-55
2021/06/12 01:04:30;;;;;;;16.60;15.40;;;19.00;99.90;;;;;;4940170;29;20197;-57
2021/06/12 01:06:55;;;;;;;16.17;15.00;;;18.90;99.90;;;;;;4936855;29;20197;-50
2021/06/12 01:09:22;;;;;;;16.00;14.80;;;18.90;99.90;;;;;;4938497;29;20205;-54
2021/06/12 01:12:12;;;;;;;15.30;14.07;;;18.90;99.90;;;;;;4945984;29;20276;-54
2021/06/12 01:14:42;;;;;;;14.57;13.47;;;18.90;99.90;;;;;;4945849;29;20559;-55
2021/06/12 01:17:33;;;;;;;15.60;14.30;;;19.00;99.90;;;;;;4947944;29;20447;-58
2021/06/12 01:20:08;;;;;;;16.27;15.03;;;18.90;99.90;;;;;;4930960;29;20485;-57
2021/06/12 01:22:46;;;;;;;14.77;13.67;;;18.90;99.90;;;;;;4924837;29;20434;-57
2021/06/12 01:25:40;;;;;;;15.13;14.03;;;18.80;99.90;;;;;;4944105;29;20425;-54
2021/06/12 01:28:26;;;;;;;16.20;14.93;;;18.80;99.90;;;;;;4945969;29;20946;-55
2021/06/12 01:30:54;;;;;;;15.20;14.10;;;18.80;99.90;;;;;;4947689;29;20464;-55
2021/06/12 01:33:21;;;;;;;16.40;15.07;;;18.80;99.90;;;;;;4947700;29;20420;-54
2021/06/12 01:35:52;;;;;;;15.50;14.30;;;18.80;99.90;;;;;;4945002;29;20444;-55
2021/06/12 01:38:25;;;;;;;15.83;14.53;;;18.80;99.90;;;;;;4948311;29;20421;-54
2021/06/12 01:40:55;;;;;;;15.90;14.60;;;18.70;99.90;;;;;;4949500;29;20458;-55
2021/06/12 01:43:22;;;;;;;15.37;14.17;;;18.70;99.90;;;;;;4945608;29;20861;-54
2021/06/12 01:45:49;;;;;;;15.37;14.20;;;18.60;99.90;;;;;;4940914;29;20540;-56
2021/06/12 01:48:16;;;;;;;16.63;15.33;;;18.50;99.90;;;;;;4937755;29;20959;-56
2021/06/12 01:50:42;;;;;;;16.63;15.30;;;18.40;99.90;;;;;;4918542;29;20441;-55
2021/06/12 01:53:10;;;;;;;16.90;15.50;;;18.30;99.90;;;;;;4938679;29;20472;-53
2021/06/12 01:55:37;;;;;;;16.10;14.90;;;18.30;99.90;;;;;;4934597;28;20436;-55
2021/06/12 01:58:07;;;;;;;16.03;14.73;;;18.30;99.90;;;;;;4936754;29;20802;-54
2021/06/12 02:00:35;;;;;;;16.00;14.80;;;18.20;99.90;;;;;;4943574;29;20443;-57
2021/06/12 02:03:02;;;;;;;17.00;15.60;;;18.10;99.90;;;;;;4948464;29;20447;-55
2021/06/12 02:05:28;;;;;;;16.40;15.20;;;18.10;99.90;;;;;;4938539;29;20556;-54
2021/06/12 02:07:55;;;;;;;17.00;15.80;;;17.90;99.90;;;;;;4940294;28;20571;-56
2021/06/12 02:10:23;;;;;;;17.03;15.73;;;17.90;99.90;;;;;;4955243;28;20519;-53
2021/06/12 02:12:51;;;;;;;16.93;15.60;;;17.90;99.90;;;;;;4942016;28;20440;-51
2021/06/12 02:15:17;;;;;;;17.03;15.63;;;17.80;99.90;;;;;;4934132;29;20433;-51
2021/06/12 02:17:43;;;;;;;17.03;15.73;;;17.80;99.90;;;;;;4931702;29;20472;-52
2021/06/12 02:20:11;;;;;;;16.63;15.43;;;17.70;99.90;;;;;;4934272;29;20453;-55
2021/06/12 02:22:42;;;;;;;17.43;16.03;;;17.70;99.90;;;;;;4943102;29;20448;-54
2021/06/12 02:25:10;;;;;;;17.47;16.10;;;17.60;99.90;;;;;;4931662;29;20491;-52
2021/06/12 02:27:39;;;;;;;17.80;16.40;;;17.60;99.90;;;;;;4932306;29;20832;-54
2021/06/12 02:30:06;;;;;;;17.77;16.37;;;17.60;99.90;;;;;;4931440;29;20444;-53
2021/06/12 02:32:37;;;;;;;17.23;15.83;;;17.50;99.90;;;;;;4932924;29;21060;-55
2021/06/12 02:35:05;;;;;;;17.87;16.37;;;17.50;99.90;;;;;;4924893;29;20458;-53
2021/06/12 02:37:31;;;;;;;18.83;17.43;;;17.50;99.90;;;;;;4939313;28;20459;-52
2021/06/12 02:39:57;;;;;;;18.23;16.83;;;17.40;99.90;;;;;;4940918;28;20449;-53
2021/06/12 02:42:22;;;;;;;18.87;17.30;;;17.40;99.90;;;;;;4944548;28;20280;-55
2021/06/12 02:44:48;;;;;;;18.80;17.30;;;17.40;99.90;;;;;;4945842;28;20228;-55
2021/06/12 02:47:15;;;;;;;18.67;17.17;;;17.40;99.90;;;;;;4948835;29;20192;-55
2021/06/12 02:49:42;;;;;;;17.90;16.43;;;17.40;99.90;;;;;;4935054;29;20594;-54
2021/06/12 02:52:17;;;;;;;17.50;16.10;;;17.30;99.90;;;;;;4933662;29;20441;-54
2021/06/12 02:54:45;;;;;;;18.20;16.77;;;17.30;99.90;;;;;;4939821;28;21217;-52
2021/06/12 02:57:12;;;;;;;17.47;16.17;;;17.30;99.90;;;;;;4943258;29;20452;-55
2021/06/12 02:59:43;;;;;;;18.77;17.27;;;17.30;99.90;;;;;;4941437;28;20476;-53
2021/06/12 03:02:10;;;;;;;17.33;16.00;;;17.30;99.90;;;;;;4937954;29;20530;-57
2021/06/12 03:04:37;;;;;;;18.33;16.60;;;17.40;99.90;;;;;;4941362;29;20434;-56
2021/06/12 03:07:05;;;;;;;17.70;16.30;;;17.40;99.90;;;;;;4919318;29;20434;-54
2021/06/12 03:09:30;;;;;;;18.23;16.63;;;17.40;99.90;;;;;;4933342;29;20441;-55
2021/06/12 03:11:57;;;;;;;20.00;18.40;;;17.40;99.90;;;;;;4937859;29;20450;-52
2021/06/12 03:14:25;;;;;;;18.80;17.20;;;17.30;99.90;;;;;;4944138;29;20588;-54
2021/06/12 03:16:51;;;;;;;19.20;17.70;;;17.20;99.90;;;;;;4939750;29;20472;-54
2021/06/12 03:19:17;;;;;;;19.73;18.13;;;17.20;99.90;;;;;;4938379;29;20484;-54
2021/06/12 03:21:44;;;;;;;18.83;17.20;;;17.20;99.90;;;;;;4947346;29;20443;-56
2021/06/12 03:24:11;;;;;;;19.93;18.33;;;17.20;99.90;;;;;;4945464;29;20479;-55
2021/06/12 03:26:37;;;;;;;19.43;17.77;;;17.20;99.90;;;;;;4933525;29;20472;-53
2021/06/12 03:29:03;;;;;;;18.07;16.67;;;17.20;99.90;;;;;;4935994;29;20472;-55
2021/06/12 03:31:30;;;;;;;18.63;17.23;;;17.20;99.90;;;;;;4935255;29;20425;-53
2021/06/12 03:33:58;;;;;;;18.70;17.20;;;17.20;99.90;;;;;;4935709;29;20520;-56
2021/06/12 03:36:27;;;;;;;18.57;17.07;;;17.20;99.90;;;;;;4934410;29;21018;-52
2021/06/12 03:38:53;;;;;;;20.10;18.30;;;17.20;99.90;;;;;;4938133;29;20443;-56
2021/06/12 03:41:19;;;;;;;19.10;17.53;;;17.30;99.90;;;;;;4939429;29;20434;-53
2021/06/12 03:43:47;;;;;;;18.90;17.30;;;17.20;99.90;;;;;;4933702;29;20198;-53
2021/06/12 03:46:14;;;;;;;19.13;17.63;;;17.30;99.90;;;;;;4916838;29;20433;-53
2021/06/12 03:48:40;;;;;;;17.90;16.27;;;17.30;99.90;;;;;;4935515;29;20535;-52
2021/06/12 03:51:09;;;;;;;19.47;17.87;;;17.40;99.90;;;;;;4939831;29;20439;-55
2021/06/12 03:53:49;;;;;;;18.43;16.83;;;17.40;99.90;;;;;;4934838;28;20433;-53
2021/06/12 03:56:20;;;;;;;18.27;16.70;;;17.50;99.90;;;;;;4949618;28;20440;-51
2021/06/12 03:58:47;;;;;;;18.70;17.20;;;17.50;99.90;;;;;;4948288;29;20541;-52
2021/06/12 04:01:18;;;;;;;19.23;17.73;;;17.40;99.90;;;;;;4933834;29;20509;-53
2021/06/12 04:03:47;;;;;;;20.20;18.50;;;17.40;99.90;;;;;;4936407;28;20536;-53
2021/06/12 04:06:13;;;;;;;18.90;17.40;;;17.40;99.90;;;;;;4955823;28;20435;-52
2021/06/12 04:08:39;;;;;;;19.37;17.83;;;17.40;99.90;;;;;;4961016;28;20569;-54
2021/06/12 04:11:07;;;;;;;18.70;17.00;;;17.40;99.90;;;;;;4953014;28;20432;-55
2021/06/12 04:13:33;;;;;;;19.50;17.80;;;17.40;99.90;;;;;;4942985;29;20508;-56
2021/06/12 04:15:59;;;;;;;20.10;18.40;;;17.40;99.90;;;;;;4945845;28;20591;-56
2021/06/12 04:18:24;;;;;;;20.10;18.30;;;17.40;99.90;;;;;;4939422;29;20519;-56
2021/06/12 04:20:50;;;;;;;20.60;18.80;;;17.40;99.90;;;;;;4937321;29;20781;-55
2021/06/12 04:23:16;;;;;;;19.63;17.87;;;17.40;99.90;;;;;;4935304;29;20184;-56
2021/06/12 04:25:43;;;;;;;19.40;17.80;;;17.40;99.90;;;;;;4933610;29;20193;-53
2021/06/12 04:28:10;;;;;;;18.97;17.57;;;17.50;99.90;;;;;;4945264;29;20478;-55
2021/06/12 04:30:36;;;;;;;19.07;17.57;;;17.60;99.90;;;;;;4950730;29;21123;-55
2021/06/12 04:33:04;;;;;;;19.63;17.90;;;17.60;99.90;;;;;;4940204;29;20437;-51
2021/06/12 04:35:31;;;;;;;19.50;17.90;;;17.70;99.90;;;;;;4932600;29;20460;-53
2021/06/12 04:37:59;;;;;;;19.50;18.00;;;17.80;99.90;;;;;;4933877;29;20511;-52
2021/06/12 04:40:25;;;;;;;18.90;17.40;;;17.90;99.90;;;;;;4937494;29;20441;-53
2021/06/12 04:42:51;;;;;;;17.60;16.20;;;18.00;99.90;;;;;;4944996;28;20445;-52
2021/06/12 04:45:16;;;;;;;18.63;17.23;;;18.20;99.90;;;;;;4943826;28;20440;-56
2021/06/12 04:47:42;;;;;;;18.80;17.30;;;18.30;99.90;;;;;;4940260;28;20216;-54
2021/06/12 04:50:10;;;;;;;19.03;17.57;;;18.40;99.90;;;;;;4941729;29;20181;-53
2021/06/12 04:52:36;;;;;;;17.40;16.00;;;18.60;99.90;;;;;;4937130;29;20196;-54
2021/06/12 04:55:03;;;;;;;16.90;15.67;;;18.80;99.90;;;;;;4937138;29;20484;-53
2021/06/12 04:57:29;;;;;;;18.43;16.87;;;18.90;99.90;;;;;;4936254;28;20433;-53
2021/06/12 04:59:54;;;;;;;17.70;16.30;;;19.10;99.90;;;;;;4938813;29;20442;-57
2021/06/12 05:02:20;;;;;;;17.23;15.93;;;19.30;99.90;;;;;;4943300;28;20638;-50
2021/06/12 05:04:45;;;;;;;17.70;16.27;;;19.40;99.90;;;;;;4942760;28;20183;-55
2021/06/12 05:07:11;;;;;;;17.50;16.20;;;19.50;99.90;;;;;;4936505;29;20237;-56
2021/06/12 05:09:37;;;;;;;17.80;16.50;;;19.60;99.90;;;;;;4933077;29;20204;-56
2021/06/12 05:12:02;;;;;;;17.77;16.47;;;19.60;99.90;;;;;;4934331;29;20188;-54
2021/06/12 05:14:28;;;;;;;17.73;16.30;;;19.60;99.90;;;;;;4936259;29;20834;-52
2021/06/12 05:16:58;;;;;;;16.90;15.50;;;19.70;99.90;;;;;;4943117;29;20583;-54
2021/06/12 05:19:24;;;;;;;17.57;15.90;;;19.90;99.90;;;;;;4938346;29;20343;-57
2021/06/12 05:21:50;;;;;;;16.93;15.70;;;20.10;99.90;;;;;;4937710;29;22257;-56
2021/06/12 05:24:15;;;;;;;17.20;15.90;;;20.20;99.90;;;;;;4934855;29;20864;-53
2021/06/12 05:26:42;;;;;;;16.77;15.37;;;20.20;99.90;;;;;;4934486;29;20449;-53
2021/06/12 05:29:08;;;;;;;17.30;15.77;;;20.30;99.90;;;;;;4938055;29;20819;-54
2021/06/12 05:31:34;;;;;;;15.53;14.43;;;20.40;99.90;;;;;;4937853;29;21257;-57
2021/06/12 05:34:00;;;;;;;16.80;15.40;;;20.60;99.90;;;;;;4947151;28;20436;-53
2021/06/12 05:36:25;;;;;;;15.53;14.43;;;20.70;99.90;;;;;;4941438;29;20197;-55
2021/06/12 05:38:51;;;;;;;15.57;14.37;;;20.70;99.90;;;;;;4932025;29;20276;-55
2021/06/12 05:41:20;;;;;;;16.83;15.33;;;20.80;99.90;;;;;;4933234;29;20193;-51
2021/06/12 05:43:46;;;;;;;15.20;14.10;;;20.80;99.90;;;;;;4949739;28;20994;-55
2021/06/12 05:46:11;;;;;;;16.70;15.40;;;20.90;99.90;;;;;;4938000;28;20425;-55
2021/06/12 05:48:37;;;;;;;16.50;15.00;;;20.90;99.90;;;;;;4944730;28;20209;-52
2021/06/12 05:51:02;;;;;;;15.73;14.53;;;21.00;99.90;;;;;;4947749;28;20623;-54
2021/06/12 05:53:28;;;;;;;15.40;14.13;;;21.10;99.90;;;;;;4943424;28;20665;-53
2021/06/12 05:55:53;;;;;;;16.57;15.37;;;21.20;99.90;;;;;;4941134;29;20253;-55
2021/06/12 05:58:19;;;;;;;15.70;14.50;;;21.30;99.90;;;;;;4938699;28;20189;-55
2021/06/12 06:00:45;;;;;;;16.73;15.53;;;21.30;99.90;;;;;;4936383;28;20194;-54
2021/06/12 06:03:10;;;;;;;16.17;14.93;;;21.30;99.90;;;;;;4943524;28;20209;-55
2021/06/12 06:05:36;;;;;;;15.97;14.87;;;21.30;99.90;;;;;;4941337;28;20832;-51
2021/06/12 06:08:02;;;;;;;15.53;14.33;;;21.30;99.90;;;;;;4933773;28;20226;-53
2021/06/12 06:10:27;;;;;;;15.73;14.50;;;21.40;99.90;;;;;;4934786;29;20196;-50
2021/06/12 06:12:53;;;;;;;14.43;13.33;;;21.30;99.90;;;;;;4938791;28;20903;-55
2021/06/12 06:15:19;;;;;;;15.30;14.20;;;21.40;99.90;;;;;;4938865;28;20221;-53
2021/06/12 06:17:44;;;;;;;15.87;14.57;;;21.50;99.90;;;;;;4937418;29;20311;-53
2021/06/12 06:20:12;;;;;;;14.53;13.53;;;21.70;99.90;;;;;;4948388;28;20707;-51
2021/06/12 06:22:38;;;;;;;15.40;14.10;;;21.90;99.90;;;;;;4942145;28;20198;-55
2021/06/12 06:25:04;;;;;;;14.43;13.33;;;22.10;99.90;;;;;;4948985;28;20438;-55
2021/06/12 06:27:30;;;;;;;15.40;14.30;;;22.40;99.90;;;;;;4943099;29;20197;-55
2021/06/12 06:29:55;;;;;;;14.17;13.17;;;22.50;99.90;;;;;;4946322;28;20874;-52
2021/06/12 06:32:21;;;;;;;13.40;12.43;;;22.60;99.90;;;;;;4948219;29;20267;-57
2021/06/12 06:34:46;;;;;;;14.17;13.03;;;23.00;99.90;;;;;;4953590;29;20539;-55
2021/06/12 06:37:12;;;;;;;12.77;11.97;;;23.10;99.90;;;;;;4946326;28;20264;-56
2021/06/12 06:39:38;;;;;;;14.13;13.10;;;23.20;99.90;;;;;;4961305;28;20631;-55
2021/06/12 06:42:04;;;;;;;14.97;13.90;;;23.20;99.90;;;;;;4948648;28;20192;-54
2021/06/12 06:44:32;;;;;;;14.37;13.47;;;23.40;99.90;;;;;;4926244;28;20186;-52
2021/06/12 06:46:57;;;;;;;14.30;13.30;;;23.60;99.90;;;;;;4946159;28;20937;-54
2021/06/12 06:49:23;;;;;;;13.77;12.60;;;23.60;99.90;;;;;;4937438;29;20534;-47
2021/06/12 06:51:48;;;;;;;14.53;13.53;;;23.70;99.90;;;;;;4935570;29;20194;-54
2021/06/12 06:54:14;;;;;;;15.23;14.13;;;23.90;99.90;;;;;;4938323;29;20185;-55
2021/06/12 06:56:39;;;;;;;15.57;14.50;;;24.00;99.90;;;;;;4941455;29;20193;-54
2021/06/12 06:59:05;;;;;;;14.53;13.53;;;24.10;99.90;;;;;;4942670;28;20265;-53
2021/06/12 07:01:31;;;;;;;14.70;13.70;;;24.10;99.90;;;;;;4935465;28;20265;-54
2021/06/12 07:03:56;;;;;;;16.20;15.00;;;24.30;99.90;;;;;;4925446;29;20197;-54
2021/06/12 07:06:22;;;;;;;14.60;13.60;;;24.20;99.90;;;;;;4934501;29;20193;-56
2021/06/12 07:08:47;;;;;;;15.33;14.13;;;24.30;99.90;;;;;;4933757;29;20214;-53
2021/06/12 07:11:13;;;;;;;16.10;15.00;;;24.50;99.90;;;;;;4937486;29;20181;-54
2021/06/12 07:13:38;;;;;;;14.40;13.40;;;24.70;99.90;;;;;;4936477;29;20297;-57
2021/06/12 07:16:05;;;;;;;14.57;13.53;;;24.90;99.50;;;;;;4936601;29;20194;-57
2021/06/12 07:18:30;;;;;;;14.10;13.10;;;25.00;99.60;;;;;;4935633;28;21126;-57
2021/06/12 07:20:56;;;;;;;12.53;11.63;;;24.90;98.20;;;;;;4940667;29;20472;-56
2021/06/12 07:23:21;;;;;;;12.10;11.30;;;24.90;98.70;;;;;;4938266;29;20212;-59
2021/06/12 07:25:47;;;;;;;13.10;12.13;;;24.80;98.50;;;;;;4943256;29;20189;-59
2021/06/12 07:28:14;;;;;;;12.87;12.03;;;24.70;98.80;;;;;;4937563;28;20255;-58
2021/06/12 07:30:41;;;;;;;12.43;11.50;;;24.80;99.10;;;;;;4945172;28;20428;-58
2021/06/12 07:33:08;;;;;;;13.03;10.90;;;24.80;98.80;;;;;;4946511;28;20448;-58
2021/06/12 07:35:34;;;;;;;11.00;10.30;;;24.80;99.70;;;;;;4933000;29;20485;-58
2021/06/12 07:38:00;;;;;;;12.60;11.63;;;24.80;98.90;;;;;;4939691;29;20444;-58
2021/06/12 07:40:26;;;;;;;12.70;11.80;;;24.90;97.70;;;;;;4934179;29;20452;-57
2021/06/12 07:42:52;;;;;;;11.50;10.70;;;25.10;97.30;;;;;;4935752;29;20437;-58
2021/06/12 07:45:18;;;;;;;10.97;10.20;;;24.90;96.70;;;;;;4933568;29;20546;-59
2021/06/12 07:47:43;;;;;;;9.97;9.30;;;24.90;96.60;;;;;;4933849;29;21388;-58
2021/06/12 07:50:09;;;;;;;12.60;11.70;;;24.90;96.10;;;;;;4944596;29;20201;-59
2021/06/12 07:52:35;;;;;;;10.63;9.90;;;24.90;96.00;;;;;;4933928;29;20190;-59
2021/06/12 07:55:00;;;;;;;10.80;10.00;;;24.80;96.50;;;;;;4933145;29;20589;-59
2021/06/12 07:57:26;;;;;;;11.00;10.10;;;24.90;96.30;;;;;;4941424;29;20580;-58
2021/06/12 07:59:51;;;;;;;11.13;10.27;;;25.00;96.50;;;;;;4933706;29;20184;-58
2021/06/12 08:02:17;;;;;;;11.57;10.77;;;25.00;96.10;;;;;;4933930;28;20230;-58
2021/06/12 08:04:42;;;;;;;11.60;10.80;;;25.10;96.20;;;;;;4935092;29;20186;-59
2021/06/12 08:07:08;;;;;;;10.93;9.90;;;25.20;95.90;;;;;;4933539;29;20190;-58
2021/06/12 08:09:34;;;;;;;12.10;11.20;;;25.40;95.60;;;;;;4934239;29;20209;-58
2021/06/12 08:12:00;;;;;;;13.30;12.30;;;25.60;95.30;;;;;;4933835;29;20205;-58
2021/06/12 08:14:25;;;;;;;14.00;13.00;;;25.60;95.50;;;;;;4934806;28;20441;-57
2021/06/12 08:16:51;;;;;;;12.90;11.80;;;25.50;95.30;;;;;;4952839;29;20184;-57
2021/06/12 08:19:16;;;;;;;12.70;11.80;;;25.20;96.10;;;;;;4935425;29;20229;-58
2021/06/12 08:21:43;;;;;;;12.17;11.30;;;25.20;96.70;;;;;;4933294;29;20657;-58
2021/06/12 08:24:11;;;;;;;11.63;10.73;;;25.30;97.00;;;;;;4933992;28;20576;-59
2021/06/12 08:26:37;;;;;;;13.40;12.30;;;25.40;96.20;;;;;;4933545;29;20460;-59
2021/06/12 08:29:02;;;;;;;12.80;11.90;;;25.50;95.50;;;;;;4932228;29;20477;-58
2021/06/12 08:31:28;;;;;;;13.20;12.20;;;25.40;96.00;;;;;;4933682;29;20229;-58
2021/06/12 08:33:54;;;;;;;11.97;10.97;;;25.50;96.20;;;;;;4938042;29;20196;-58
2021/06/12 08:36:20;;;;;;;13.33;12.13;;;25.50;96.70;;;;;;4952370;29;20181;-58
2021/06/12 08:38:45;;;;;;;14.50;13.30;;;25.40;96.90;;;;;;4951391;29;20200;-58
2021/06/12 08:41:11;;;;;;;13.73;12.60;;;25.40;97.10;;;;;;4958164;28;20433;-58
2021/06/12 08:43:37;;;;;;;14.27;13.07;;;25.50;96.40;;;;;;4955271;28;20247;-58
2021/06/12 08:46:03;;;;;;;13.63;12.50;;;25.60;96.50;;;;;;4962887;28;20184;-58
2021/06/12 08:48:29;;;;;;;13.13;12.17;;;25.60;96.60;;;;;;4952474;28;20523;-58
2021/06/12 08:50:55;;;;;;;13.90;12.67;;;25.80;95.80;;;;;;4943455;29;20441;-58
2021/06/12 08:53:21;;;;;;;13.87;12.53;;;25.90;95.10;;;;;;4944406;29;20763;-58
2021/06/12 08:55:47;;;;;;;13.73;12.63;;;25.70;95.10;;;;;;4932412;29;20421;-58
2021/06/12 08:58:14;;;;;;;13.60;12.60;;;25.70;95.50;;;;;;4936960;28;20190;-59
2021/06/12 09:00:41;;;;;;;12.90;11.90;;;25.80;95.80;;;;;;4932752;29;20436;-59
2021/06/12 09:03:27;;;;;;;13.77;12.70;;;25.90;95.10;;;;;;4936094;29;20473;-58
2021/06/12 09:05:58;;;;;;;13.63;12.53;;;26.10;94.40;;;;;;4932834;29;20571;-59
2021/06/12 09:08:25;;;;;;;13.30;12.30;;;26.10;94.20;;;;;;4932365;29;20470;-57
2021/06/12 09:11:09;;;;;;;11.93;10.97;;;26.20;94.00;;;;;;4932728;28;20431;-58
2021/06/12 09:13:46;;;;;;;13.80;12.80;;;26.30;94.40;;;;;;4934056;29;20473;-58
2021/06/12 09:16:39;;;;;;;11.80;10.90;;;26.40;93.90;;;;;;4934827;29;20476;-59
2021/06/12 09:19:16;;;;;;;11.90;11.00;;;26.30;93.90;;;;;;4947149;28;20539;-58
2021/06/12 09:21:44;;;;;;;12.13;11.23;;;26.50;93.60;;;;;;4944737;28;20437;-57
2021/06/12 09:24:34;;;;;;;12.90;12.00;;;26.50;92.90;;;;;;4941822;29;20777;-58
2021/06/12 09:27:11;;;;;;;12.40;11.50;;;26.60;93.10;;;;;;4932220;29;20444;-59
2021/06/12 09:29:48;;;;;;;10.70;9.90;;;26.70;93.20;;;;;;4932970;29;20501;-58
2021/06/12 09:32:29;;;;;;;10.70;9.90;;;26.70;93.40;;;;;;4932456;29;20428;-59
2021/06/12 09:35:06;;;;;;;10.80;9.97;;;26.70;93.10;;;;;;4945413;29;20433;-59
2021/06/12 09:37:32;;;;;;;10.73;9.83;;;27.00;92.40;;;;;;4931988;29;20433;-59
2021/06/12 09:40:13;;;;;;;11.60;10.60;;;27.40;92.40;;;;;;4947000;28;20420;-58
2021/06/12 09:42:43;;;;;;;10.50;9.80;;;27.80;90.60;;;;;;4933118;29;20445;-59
2021/06/12 09:45:12;;;;;;;9.00;8.30;;;28.10;86.30;;;;;;4944187;28;21106;-60
2021/06/12 09:47:37;;;;;;;10.37;9.50;;;28.40;80.80;;;;;;4932257;29;20430;-58
2021/06/12 09:50:06;;;;;;;8.53;7.93;;;28.50;79.30;;;;;;4944267;28;20449;-59
2021/06/12 09:52:47;;;;;;;8.30;7.70;;;28.50;74.30;;;;;;4932264;29;20667;-59
2021/06/12 09:55:30;;;;;;;8.60;8.00;;;28.50;76.00;;;;;;4935821;29;20979;-59
2021/06/12 09:57:58;;;;;;;10.37;9.67;;;28.70;74.70;;;;;;4944631;29;20528;-59
2021/06/12 10:00:41;;;;;;;10.30;9.50;;;28.40;77.50;;;;;;4945841;29;20494;-59
2021/06/12 10:03:26;;;;;;;10.30;9.60;;;28.10;77.60;;;;;;4936831;29;20414;-59
2021/06/12 10:06:20;;;;;;;9.97;9.20;;;28.10;79.10;;;;;;4936332;29;20520;-59
2021/06/12 10:08:51;;;;;;;9.07;8.43;;;27.90;79.40;;;;;;4946611;29;20468;-59
2021/06/12 10:11:19;;;;;;;9.40;8.80;;;28.00;79.80;;;;;;4945850;29;20428;-59
2021/06/12 10:13:46;;;;;;;10.50;9.53;;;28.20;78.20;;;;;;4935324;29;20433;-60
2021/06/12 10:16:13;;;;;;;10.80;10.10;;;28.10;77.90;;;;;;4948690;29;20911;-59
2021/06/12 10:18:41;;;;;;;10.30;9.53;;;28.20;77.60;;;;;;4941810;28;20550;-60
2021/06/12 10:21:14;;;;;;;10.30;9.70;;;27.90;76.60;;;;;;4948129;28;20425;-60
2021/06/12 10:23:44;;;;;;;13.50;12.37;;;27.60;79.40;;;;;;4947280;29;20572;-60
2021/06/12 10:26:12;;;;;;;12.47;11.60;;;27.60;78.80;;;;;;4935361;29;20421;-59
2021/06/12 10:28:37;;;;;;;13.17;12.27;;;27.80;77.60;;;;;;4940609;29;20472;-60
2021/06/12 10:31:10;;;;;;;12.87;11.87;;;27.90;77.70;;;;;;4942584;29;20453;-58
2021/06/12 10:33:40;;;;;;;11.43;10.73;;;27.80;78.00;;;;;;4936739;29;20186;-59
2021/06/12 10:36:16;;;;;;;12.73;11.83;;;28.00;78.10;;;;;;4941695;29;20437;-59
2021/06/12 10:38:43;;;;;;;13.20;12.20;;;27.80;78.80;;;;;;4936515;29;20569;-59
2021/06/12 10:41:14;;;;;;;13.83;12.93;;;27.60;77.90;;;;;;4952867;28;20444;-59
2021/06/12 10:43:39;;;;;;;13.37;12.30;;;27.30;78.80;;;;;;4937019;29;20493;-59
2021/06/12 10:46:05;;;;;;;12.70;11.77;;;27.10;80.90;;;;;;4918345;29;20445;-58
2021/06/12 10:48:37;;;;;;;12.53;11.43;;;26.60;82.50;;;;;;4935877;29;20213;-59
2021/06/12 10:51:04;;;;;;;12.67;11.57;;;26.20;84.80;;;;;;4939770;29;21015;-60
2021/06/12 10:53:33;;;;;;;11.37;10.47;;;26.60;83.90;;;;;;4951237;29;20456;-60
2021/06/12 10:56:04;;;;;;;11.50;10.80;;;27.50;83.80;;;;;;4943082;29;20441;-59
2021/06/12 10:58:35;;;;;;;12.47;11.47;;;28.00;78.40;;;;;;4943961;29;20911;-59
2021/06/12 11:01:07;;;;;;;11.83;11.00;;;27.90;76.90;;;;;;4936831;29;20437;-59
2021/06/12 11:04:30;;;;;;;11.87;10.97;;;28.00;77.90;;;;;;4934870;29;20420;-59
2021/06/12 11:09:14;;;;;;;12.53;11.73;;;26.60;79.30;;;;;;4945200;28;20556;-57
2021/06/12 11:11:59;;;;;;;11.70;10.80;;;25.90;83.30;;;;;;4940909;29;20440;-59
2021/06/12 11:14:27;;;;;;;11.87;10.97;;;25.70;85.50;;;;;;4948104;29;20444;-58
2021/06/12 11:17:08;;;;;;;12.57;11.67;;;25.20;87.90;;;;;;4942346;28;20489;-59
2021/06/12 11:19:50;;;;;;;13.20;12.20;;;25.40;88.60;;;;;;4947454;28;20943;-59
2021/06/12 11:22:24;;;;;;;12.50;11.60;;;25.70;87.10;;;;;;4935632;29;20457;-59
2021/06/12 11:24:58;;;;;;;13.50;12.50;;;25.90;85.90;;;;;;4936856;29;20524;-59
2021/06/12 11:27:34;;;;;;;11.67;10.77;;;25.90;85.00;;;;;;4934758;29;20435;-59
2021/06/12 11:30:27;;;;;;;12.30;11.30;;;25.80;86.50;;;;;;4935172;29;20991;-59
2021/06/12 11:32:56;;;;;;;12.23;11.27;;;25.60;87.80;;;;;;4934597;29;20429;-59
2021/06/12 11:35:53;;;;;;;12.10;11.10;;;25.90;86.80;;;;;;4935172;29;20414;-59
2021/06/12 11:38:36;;;;;;;12.47;11.47;;;26.20;85.60;;;;;;4936013;29;20428;-59
2021/06/12 11:41:10;;;;;;;13.43;12.43;;;26.40;85.30;;;;;;4951476;28;20413;-59
2021/06/12 11:43:40;;;;;;;12.10;11.20;;;26.70;83.50;;;;;;4950878;28;20858;-59
2021/06/12 11:46:14;;;;;;;11.80;10.93;;;27.10;83.10;;;;;;4938473;29;20434;-59
2021/06/12 11:48:42;;;;;;;12.63;11.57;;;27.30;81.40;;;;;;4939883;29;20460;-59
2021/06/12 11:51:35;;;;;;;11.93;10.97;;;27.50;81.40;;;;;;4933636;29;21362;-59
2021/06/12 11:54:09;;;;;;;12.93;11.83;;;27.30;79.80;;;;;;4933997;29;20429;-58
2021/06/12 11:56:43;;;;;;;12.73;11.83;;;26.90;80.50;;;;;;4940003;29;20474;-59
2021/06/12 11:59:10;;;;;;;11.70;10.80;;;26.60;82.10;;;;;;4938443;29;20416;-59
2021/06/12 12:01:38;;;;;;;12.63;11.70;;;26.30;84.40;;;;;;4933287;29;20453;-59
2021/06/12 12:04:09;;;;;;;12.20;11.30;;;26.10;84.60;;;;;;4933777;29;20440;-58
2021/06/12 12:06:35;;;;;;;11.73;10.87;;;25.80;85.00;;;;;;4934160;29;20513;-58
2021/06/12 12:09:02;;;;;;;12.90;11.80;;;25.60;86.00;;;;;;4935116;29;20556;-57
2021/06/12 12:11:28;;;;;;;12.57;11.57;;;25.20;87.20;;;;;;4932670;29;20425;-59
2021/06/12 12:14:04;;;;;;;12.37;11.40;;;25.00;88.20;;;;;;4933323;29;20436;-58
2021/06/12 12:16:30;;;;;;;13.00;12.00;;;24.80;87.30;;;;;;4933301;29;20182;-59
2021/06/12 12:18:58;;;;;;;12.13;11.10;;;24.90;87.60;;;;;;4940272;28;20543;-59
2021/06/12 12:21:42;;;;;;;11.40;10.60;;;25.10;88.90;;;;;;4946835;29;20428;-59
2021/06/12 12:24:11;;;;;;;11.07;10.17;;;25.20;88.00;;;;;;4936669;29;20798;-55
2021/06/12 12:26:39;;;;;;;11.67;10.73;;;25.30;87.40;;;;;;4934023;29;20409;-58
2021/06/12 12:29:15;;;;;;;10.17;9.37;;;25.10;88.30;;;;;;4933480;29;20536;-59
2021/06/12 12:31:46;;;;;;;10.97;10.13;;;25.10;88.90;;;;;;4923759;29;20949;-58
2021/06/12 12:34:12;;;;;;;10.10;9.40;;;24.80;87.70;;;;;;4938523;29;20422;-58
2021/06/12 12:36:44;;;;;;;9.57;8.87;;;24.60;86.80;;;;;;4943908;29;20433;-59
2021/06/12 12:39:10;;;;;;;10.13;9.43;;;24.60;85.50;;;;;;4942733;29;20479;-59